Flight Track Log - Related Links

Times and Time Zones

All times are in EDT time to prevent confusion due to time zone crossing. See the UCA3599 flight status page for this flight to view local times or setup timezone preferences in your user account.

Time Position Orientation Groundspeed Altitude Reporting Facility
EDT Latitude Longitude Course Direction KTS MPH feet Rate Location/Type
Thu 06:25:38 AM 42.1614 -75.9717 228° Southwest 255 293 3,300  Level New York Center
Thu 06:26:38 AM 42.1186 -75.9989 205° Southwest 171 197 4,800 1,300 Climbing New York Center
Thu 06:27:38 AM 42.0900 -76.0303 219° Southwest 176 203 5,900 1,200 Climbing New York Center
Thu 06:28:38 AM 42.0508 -76.0689 216° Southwest 171 197 7,200 1,200 Climbing New York Center
Thu 06:29:38 AM 42.0117 -76.1078 216° Southwest 177 204 8,300 1,150 Climbing New York Center
Thu 06:30:00 AM 41.9780 -76.0894 209° Southwest  Level Estimated
Thu 06:30:38 AM 41.9700 -76.1517 218° Southwest 177 204 9,500  Level New York Center
Thu 06:31:00 AM 41.9452 -76.1381 228° Southwest  Level FlightAware Approximate
Thu 06:31:38 AM 41.9308 -76.1933 218° Southwest 184 212 10,500  Level New York Center
Thu 06:32:38 AM 41.8917 -76.2289 214° Southwest 184 212 11,500 950 Climbing New York Center
Thu 06:33:38 AM 41.8567 -76.2650 218° Southwest 184 212 12,400 1,000 Climbing New York Center
Thu 06:34:38 AM 41.8131 -76.3089 217° Southwest 184 212 13,500 1,050 Climbing New York Center
Thu 06:35:38 AM 41.7736 -76.3472 216° Southwest 184 212 14,500 950 Climbing New York Center
Thu 06:36:38 AM 41.7342 -76.3883 218° Southwest 184 212 15,400 750 Climbing New York Center
Thu 06:37:38 AM 41.6994 -76.4217 216° Southwest 184 212 16,000 300 Climbing New York Center
Thu 06:38:38 AM 41.6556 -76.4653 217° Southwest 194 223 16,000  Level New York Center
Thu 06:39:38 AM 41.6008 -76.5214 217° Southwest 214 246 16,000  Level New York Center
Thu 06:40:38 AM 41.5486 -76.5697 215° Southwest 226 260 16,000  Level New York Center
Thu 06:41:38 AM 41.4961 -76.6206 216° Southwest 233 268 16,000  Level New York Center
Thu 06:42:38 AM 41.4478 -76.6689 217° Southwest 233 268 16,000  Level New York Center
Thu 06:43:38 AM 41.3886 -76.7303 218° Southwest 238 274 16,000  Level New York Center
Thu 06:44:38 AM 41.3339 -76.7806 215° Southwest 238 274 16,000  Level New York Center
Thu 06:45:38 AM 41.2667 -76.7939 188° South 238 274 16,000  Level New York Center
Thu 06:46:38 AM 41.1950 -76.8069 188° South 250 288 16,000  Level New York Center
Thu 06:47:38 AM 41.1233 -76.8225 189° South 255 293 16,000  Level New York Center
Thu 06:48:38 AM 41.0542 -76.8328 186° South 261 300 16,000  Level New York Center
Thu 06:49:38 AM 40.9825 -76.8486 189° South 261 300 16,000  Level New York Center
Thu 06:50:38 AM 40.9131 -76.8614 188° South 261 300 16,000 50 Level New York Center
Thu 06:51:38 AM 40.8497 -76.8750 189° South 261 300 16,100 900 Climbing New York Center
Thu 06:52:38 AM 40.7847 -76.8856 187° South 239 275 17,800 950 Climbing New York Center
Thu 06:53:38 AM 40.7317 -76.9028 194° South 220 253 18,000 100 Climbing New York Center
Thu 06:54:38 AM 40.6636 -76.9269 195° South 230 265 18,000  Level New York Center
Thu 06:55:38 AM 40.6044 -76.9436 192° South 242 278 18,000  Level New York Center
Thu 06:56:38 AM 40.5303 -76.9669 193° South 248 285 18,000  Level New York Center
Thu 06:57:38 AM 40.4667 -76.9858 193° South 253 291 18,000 -271 Level New York Center
Thu 06:59:13 AM 40.3500 -77.0167 191° South 268 308 17,300 -604 Descending Potomac TRACON
Thu 07:00:07 AM 40.2833 -77.0500 201° Southwest 277 319 16,500 -950 Descending Potomac TRACON
Thu 07:01:13 AM 40.2000 -77.0667 189° South 280 322 15,400 -1,000 Descending Potomac TRACON
Thu 07:02:07 AM 40.1333 -77.0833 191° South 282 325 14,500 -1,000 Descending Potomac TRACON
Thu 07:03:07 AM 40.0667 -77.1167 201° Southwest 281 323 13,500 -1,000 Descending Potomac TRACON
Thu 07:04:01 AM 39.9833 -77.1333 189° South 279 321 12,600 -1,000 Descending Potomac TRACON
Thu 07:05:07 AM 39.9000 -77.1500 189° South 277 319 11,500 -1,000 Descending Potomac TRACON
Thu 07:05:55 AM 39.8500 -77.1833 207° Southwest 275 316 10,700 -1,000 Descending Potomac TRACON
Thu 07:06:55 AM 39.7833 -77.2333 210° Southwest 272 313 9,700 -1,000 Descending Potomac TRACON
Thu 07:07:55 AM 39.7167 -77.2833 210° Southwest 250 288 8,700 -1,000 Descending Potomac TRACON
Thu 07:08:49 AM 39.6667 -77.3167 207° Southwest 261 300 7,800 -950 Descending Potomac TRACON
Thu 07:09:55 AM 39.6000 -77.3833 218° Southwest 263 303 6,800 -950 Descending Potomac TRACON
Thu 07:10:49 AM 39.5500 -77.4167 207° Southwest 259 298 5,900 -1,263 Descending Potomac TRACON
Thu 07:11:49 AM 39.4833 -77.4167 180° South 241 277 4,400 -950 Descending Potomac TRACON
Thu 07:12:49 AM 39.4000 -77.4333 189° South 247 284 4,000 -211 Descending Potomac TRACON
Thu 07:13:43 AM 39.3500 -77.4333 180° South 245 282 4,000 -526 Level Potomac TRACON
Thu 07:14:43 AM 39.2667 -77.4333 180° South 257 296 3,000 -500 Descending Potomac TRACON
Thu 07:15:43 AM 39.2000 -77.4333 180° South 238 274 3,000  Level Potomac TRACON
Thu 07:16:43 AM 39.1333 -77.4333 180° South 245 282 3,000 -211 Level Potomac TRACON
Thu 07:17:37 AM 39.0833 -77.4333 180° South 200 230 2,600 -632 Descending Potomac TRACON
Thu 07:18:37 AM 39.0333 -77.4333 180° South 156 180 1,800 -750 Descending Potomac TRACON
Thu 07:19:37 AM 39.0000 -77.4333 180° South 129 148 1,100 -650 Descending Potomac TRACON
Thu 07:20:37 AM 38.9667 -77.4333 180° South 127 146 500 -421 Descending Potomac TRACON
Thu 07:21:31 AM 39.0000 -77.4333 360° North 58 67 300 -105 Descending Potomac TRACON
Thu 07:22:31 AM 38.9833 -77.4333 180° South 14 16 300  Level Potomac TRACON
Thu 07:25:00 AM 38.9474 -77.4599 180° South  Level Estimated
Thu 07:32:00 AM 38.9474 -77.4599 349° North  Level Estimated
Thu 07:33:00 AM 38.9474 -77.4599 349° North  Level Estimated
Thu 07:34:00 AM 38.9474 -77.4599 349° North  Level Estimated
Thu 07:35:00 AM 38.9474 -77.4599 349° North  Level Estimated

Login

Don't have an account? Register now (free) for customized features, flight alerts, and more!